Time,TemperatureF,DewpointF,PressureIn,WindDirection,WindDirectionDegrees,WindSpeedMPH,WindSpeedGustMPH,Humidity,HourlyPrecipIn,Conditions,Clouds,dailyrainin,SoftwareType,DateUTC
2013-04-30 00:00:00,55.2,54.7,30.00,WNW,300,0.0,0.0,98,0.00,,,0.00,VWS V14.00,2013-04-30 04:00:00,
2013-04-30 00:05:00,55.2,54.7,30.03,WNW,300,0.0,0.0,98,0.00,,,0.00,VWS V14.00,2013-04-30 04:05:00,
2013-04-30 00:06:00,55.0,54.5,30.03,WNW,300,0.0,0.0,98,0.00,,,0.00,VWS V14.00,2013-04-30 04:06:00,
2013-04-30 00:08:00,55.2,54.7,30.03,WNW,300,0.0,0.0,98,0.00,,,0.00,VWS V14.00,2013-04-30 04:08:00,
2013-04-30 00:09:00,55.2,54.7,30.03,WNW,300,0.0,0.0,98,0.00,,,0.00,VWS V14.00,2013-04-30 04:09:00,
2013-04-30 00:10:00,55.2,54.7,30.03,WNW,300,0.0,0.0,98,0.00,,,0.00,VWS V14.00,2013-04-30 04:10:00,
2013-04-30 00:11:00,55.0,54.5,30.03,WNW,300,0.0,0.0,98,0.00,,,0.00,VWS V14.00,2013-04-30 04:11:00,
2013-04-30 00:12:00,55.0,54.5,30.03,WNW,300,0.0,0.0,98,0.00,,,0.00,VWS V14.00,2013-04-30 04:12:00,
2013-04-30 00:15:00,55.0,54.5,30.03,WNW,300,0.0,0.0,98,0.00,,,0.00,VWS V14.00,2013-04-30 04:15:00,
2013-04-30 00:16:00,54.9,54.3,30.03,WNW,300,0.0,0.0,98,0.00,,,0.00,VWS V14.00,2013-04-30 04:16:00,
2013-04-30 00:20:00,55.0,54.5,30.03,WNW,300,0.0,0.0,98,0.00,,,0.00,VWS V14.00,2013-04-30 04:20:00,
2013-04-30 00:21:00,54.7,54.1,30.03,WNW,300,0.0,0.0,98,0.00,,,0.00,VWS V14.00,2013-04-30 04:21:00,
2013-04-30 00:25:00,54.9,54.3,30.03,WNW,300,0.0,0.0,98,0.00,,,0.00,VWS V14.00,2013-04-30 04:25:00,
2013-04-30 00:26:00,54.7,54.1,30.03,WNW,300,0.0,0.0,98,0.00,,,0.00,VWS V14.00,2013-04-30 04:26:00,
2013-04-30 00:30:00,54.7,54.1,30.03,WNW,300,0.0,0.0,98,0.00,,,0.00,VWS V14.00,2013-04-30 04:30:00,
2013-04-30 00:31:00,54.5,54.0,30.03,WNW,300,0.0,0.0,98,0.00,,,0.00,VWS V14.00,2013-04-30 04:31:00,
2013-04-30 00:35:00,54.7,54.1,30.03,WNW,300,0.0,0.0,98,0.00,,,0.00,VWS V14.00,2013-04-30 04:35:00,
2013-04-30 00:36:00,54.5,54.0,30.03,WNW,300,0.0,0.0,98,0.00,,,0.00,VWS V14.00,2013-04-30 04:36:00,
2013-04-30 00:40:00,54.5,54.0,30.03,WNW,300,0.0,0.0,98,0.00,,,0.00,VWS V14.00,2013-04-30 04:40:00,
2013-04-30 00:41:00,54.5,54.0,30.03,WNW,300,0.0,0.0,98,0.00,,,0.00,VWS V14.00,2013-04-30 04:41:00,
2013-04-30 00:45:00,54.5,54.0,30.03,WNW,300,0.0,0.0,98,0.00,,,0.00,VWS V14.00,2013-04-30 04:45:00,
2013-04-30 00:47:00,54.5,54.0,30.03,WNW,300,0.0,0.0,98,0.00,,,0.00,VWS V14.00,2013-04-30 04:47:00,
2013-04-30 00:50:00,54.5,54.0,30.03,WNW,300,0.0,0.0,98,0.00,,,0.00,VWS V14.00,2013-04-30 04:50:00,
2013-04-30 00:52:00,54.3,53.8,30.03,WNW,300,0.0,0.0,98,0.00,,,0.00,VWS V14.00,2013-04-30 04:52:00,
2013-04-30 00:55:00,54.5,54.0,30.03,WNW,300,0.0,0.0,98,0.00,,,0.00,VWS V14.00,2013-04-30 04:55:00,
2013-04-30 00:57:00,54.3,53.8,30.03,WNW,300,0.0,0.0,98,0.00,,,0.00,VWS V14.00,2013-04-30 04:57:00,
2013-04-30 01:00:00,54.3,53.8,30.03,WNW,300,0.0,0.0,98,0.00,,,0.00,VWS V14.00,2013-04-30 05:00:00,
2013-04-30 01:02:00,54.1,53.6,30.03,WNW,300,0.0,0.0,98,0.00,,,0.00,VWS V14.00,2013-04-30 05:02:00,
2013-04-30 01:05:00,54.3,53.8,30.03,WNW,300,0.0,0.0,98,0.00,,,0.00,VWS V14.00,2013-04-30 05:05:00,
2013-04-30 01:07:00,54.1,53.6,30.03,WNW,300,0.0,0.0,98,0.00,,,0.00,VWS V14.00,2013-04-30 05:07:00,
2013-04-30 01:10:00,54.1,53.6,30.03,WNW,300,0.0,0.0,98,0.00,,,0.00,VWS V14.00,2013-04-30 05:10:00,
2013-04-30 01:12:00,54.1,53.6,30.03,WNW,300,0.0,0.0,98,0.00,,,0.00,VWS V14.00,2013-04-30 05:12:00,
2013-04-30 01:15:00,54.1,53.6,30.03,WNW,300,0.0,0.0,98,0.00,,,0.00,VWS V14.00,2013-04-30 05:15:00,
2013-04-30 01:17:00,54.1,53.6,30.03,WNW,300,0.0,0.0,98,0.00,,,0.00,VWS V14.00,2013-04-30 05:17:00,
2013-04-30 01:20:00,54.1,53.6,30.03,WNW,300,0.0,0.0,98,0.00,,,0.00,VWS V14.00,2013-04-30 05:20:00,
2013-04-30 01:22:00,54.0,53.4,30.03,WNW,300,0.0,0.0,98,0.00,,,0.00,VWS V14.00,2013-04-30 05:22:00,
2013-04-30 01:25:00,54.1,53.6,30.03,WNW,300,0.0,0.0,98,0.00,,,0.00,VWS V14.00,2013-04-30 05:25:00,
2013-04-30 01:27:00,54.0,53.4,30.03,WNW,300,0.0,0.0,98,0.00,,,0.00,VWS V14.00,2013-04-30 05:27:00,
2013-04-30 01:30:00,54.0,53.4,30.03,WNW,300,0.0,0.0,98,0.00,,,0.00,VWS V14.00,2013-04-30 05:30:00,
2013-04-30 01:32:00,54.1,53.6,30.03,WNW,300,0.0,0.0,98,0.00,,,0.00,VWS V14.00,2013-04-30 05:32:00,
2013-04-30 01:35:00,54.0,53.4,30.03,WNW,300,0.0,0.0,98,0.00,,,0.00,VWS V14.00,2013-04-30 05:35:00,
2013-04-30 01:37:00,54.1,53.6,30.03,WNW,300,0.0,0.0,98,0.00,,,0.00,VWS V14.00,2013-04-30 05:37:00,
2013-04-30 01:40:00,54.1,53.6,30.03,WNW,300,0.0,0.0,98,0.00,,,0.00,VWS V14.00,2013-04-30 05:40:00,
2013-04-30 01:42:00,54.1,53.6,30.00,WNW,300,0.0,0.0,98,0.00,,,0.00,VWS V14.00,2013-04-30 05:42:00,
2013-04-30 01:45:00,54.1,53.6,30.03,WNW,300,0.0,0.0,98,0.00,,,0.00,VWS V14.00,2013-04-30 05:45:00,
2013-04-30 01:47:00,54.1,53.6,30.00,WNW,300,0.0,0.0,98,0.00,,,0.00,VWS V14.00,2013-04-30 05:47:00,
2013-04-30 01:50:00,54.1,53.6,30.00,WNW,300,0.0,0.0,98,0.00,,,0.00,VWS V14.00,2013-04-30 05:50:00,
2013-04-30 01:52:00,54.1,53.6,30.00,WNW,300,0.0,0.0,98,0.00,,,0.00,VWS V14.00,2013-04-30 05:52:00,
2013-04-30 01:55:00,54.1,53.6,30.00,WNW,300,0.0,0.0,98,0.00,,,0.00,VWS V14.00,2013-04-30 05:55:00,
2013-04-30 01:57:00,54.3,53.8,30.00,WNW,300,0.0,0.0,98,0.00,,,0.00,VWS V14.00,2013-04-30 05:57:00,
2013-04-30 02:00:00,54.1,53.6,30.00,WNW,300,0.0,0.0,98,0.00,,,0.00,VWS V14.00,2013-04-30 06:00:00,
2013-04-30 02:02:00,54.3,53.8,30.00,SW,232,0.0,0.0,98,0.00,,,0.00,VWS V14.00,2013-04-30 06:02:00,
2013-04-30 02:05:00,54.3,53.8,30.00,WNW,300,0.0,0.0,98,0.00,,,0.00,VWS V14.00,2013-04-30 06:05:00,
2013-04-30 02:07:00,54.3,53.8,30.00,SW,232,0.0,0.0,98,0.00,,,0.00,VWS V14.00,2013-04-30 06:07:00,
2013-04-30 02:10:00,54.3,53.8,30.00,SW,232,0.0,0.0,98,0.00,,,0.00,VWS V14.00,2013-04-30 06:10:00,
2013-04-30 02:12:00,54.3,53.8,30.00,SW,232,0.0,0.0,98,0.00,,,0.00,VWS V14.00,2013-04-30 06:12:00,
2013-04-30 02:15:00,54.3,53.8,30.00,SW,232,0.0,0.0,98,0.00,,,0.00,VWS V14.00,2013-04-30 06:15:00,
2013-04-30 02:17:00,54.3,53.8,30.00,WNW,300,0.0,0.0,98,0.00,,,0.00,VWS V14.00,2013-04-30 06:17:00,
2013-04-30 02:20:00,54.3,53.8,30.00,SW,232,0.0,0.0,98,0.00,,,0.00,VWS V14.00,2013-04-30 06:20:00,
2013-04-30 02:22:00,54.5,54.0,30.00,WNW,300,0.0,0.0,98,0.00,,,0.00,VWS V14.00,2013-04-30 06:22:00,
2013-04-30 02:25:00,54.3,53.8,30.00,WNW,300,0.0,0.0,98,0.00,,,0.00,VWS V14.00,2013-04-30 06:25:00,
2013-04-30 02:27:00,54.5,54.0,30.00,WNW,300,0.0,0.0,98,0.00,,,0.00,VWS V14.00,2013-04-30 06:27:00,
2013-04-30 02:30:00,54.5,54.0,30.00,WNW,300,0.0,0.0,98,0.00,,,0.00,VWS V14.00,2013-04-30 06:30:00,
2013-04-30 02:32:00,54.7,54.1,30.00,WNW,300,0.0,0.0,98,0.00,,,0.00,VWS V14.00,2013-04-30 06:32:00,
2013-04-30 02:35:00,54.5,54.0,30.00,WNW,300,0.0,0.0,98,0.00,,,0.00,VWS V14.00,2013-04-30 06:35:00,
2013-04-30 02:37:00,54.7,54.1,30.00,WNW,300,0.0,0.0,98,0.00,,,0.00,VWS V14.00,2013-04-30 06:37:00,
2013-04-30 02:40:00,54.7,54.1,30.00,WNW,300,0.0,0.0,98,0.00,,,0.00,VWS V14.00,2013-04-30 06:40:00,
2013-04-30 02:42:00,54.9,54.3,30.00,WNW,300,0.0,0.0,98,0.00,,,0.00,VWS V14.00,2013-04-30 06:42:00,
2013-04-30 02:45:00,54.7,54.1,30.00,WNW,300,0.0,0.0,98,0.00,,,0.00,VWS V14.00,2013-04-30 06:45:00,
2013-04-30 02:47:00,54.9,54.3,30.00,WNW,300,0.0,0.0,98,0.00,,,0.00,VWS V14.00,2013-04-30 06:47:00,
2013-04-30 02:50:00,54.9,54.3,30.00,WNW,300,0.0,0.0,98,0.00,,,0.00,VWS V14.00,2013-04-30 06:50:00,
2013-04-30 02:52:00,54.9,54.3,30.00,WNW,300,0.0,0.0,98,0.00,,,0.00,VWS V14.00,2013-04-30 06:52:00,
2013-04-30 02:55:00,54.9,54.3,30.00,WNW,300,0.0,0.0,98,0.00,,,0.00,VWS V14.00,2013-04-30 06:55:00,
2013-04-30 02:57:00,55.0,54.5,30.00,WNW,300,0.0,0.0,98,0.00,,,0.00,VWS V14.00,2013-04-30 06:57:00,
2013-04-30 03:00:00,54.9,54.3,30.00,WNW,300,0.0,0.0,98,0.00,,,0.00,VWS V14.00,2013-04-30 07:00:00,
2013-04-30 03:02:00,55.0,54.5,30.00,WNW,300,0.0,0.0,98,0.00,,,0.00,VWS V14.00,2013-04-30 07:02:00,
2013-04-30 03:05:00,55.0,54.5,30.00,WNW,300,0.0,0.0,98,0.00,,,0.00,VWS V14.00,2013-04-30 07:05:00,
2013-04-30 03:07:00,55.2,54.7,30.00,WNW,300,0.0,0.0,98,0.00,,,0.00,VWS V14.00,2013-04-30 07:07:00,
2013-04-30 03:10:00,55.0,54.5,30.00,WNW,300,0.0,0.0,98,0.00,,,0.00,VWS V14.00,2013-04-30 07:10:00,
2013-04-30 03:12:00,55.2,54.7,30.00,WNW,300,0.0,0.0,98,0.00,,,0.00,VWS V14.00,2013-04-30 07:12:00,
2013-04-30 03:15:00,55.2,54.7,30.00,WNW,300,0.0,0.0,98,0.00,,,0.00,VWS V14.00,2013-04-30 07:15:00,
2013-04-30 03:17:00,55.4,54.8,30.00,WNW,300,0.0,0.0,98,0.00,,,0.00,VWS V14.00,2013-04-30 07:17:00,
2013-04-30 03:20:00,55.2,54.7,30.00,WNW,300,0.0,0.0,98,0.00,,,0.00,VWS V14.00,2013-04-30 07:20:00,
2013-04-30 03:22:00,55.6,55.0,30.00,WNW,300,0.0,0.0,98,0.00,,,0.00,VWS V14.00,2013-04-30 07:22:00,
2013-04-30 03:25:00,55.4,54.8,30.00,WNW,300,0.0,0.0,98,0.00,,,0.00,VWS V14.00,2013-04-30 07:25:00,
2013-04-30 03:27:00,55.6,55.0,30.00,WNW,300,0.0,0.0,98,0.00,,,0.00,VWS V14.00,2013-04-30 07:27:00,
2013-04-30 03:30:00,55.6,55.0,30.00,WNW,300,0.0,0.0,98,0.00,,,0.00,VWS V14.00,2013-04-30 07:30:00,
2013-04-30 03:32:00,55.6,55.0,30.00,WNW,300,0.0,0.0,98,0.00,,,0.00,VWS V14.00,2013-04-30 07:32:00,
2013-04-30 03:35:00,55.6,55.0,30.00,WNW,300,0.0,0.0,98,0.00,,,0.00,VWS V14.00,2013-04-30 07:35:00,
2013-04-30 03:37:00,55.8,55.2,30.00,WNW,300,0.0,0.0,98,0.00,,,0.00,VWS V14.00,2013-04-30 07:37:00,
2013-04-30 03:40:00,55.6,55.0,30.00,WNW,300,0.0,0.0,98,0.00,,,0.00,VWS V14.00,2013-04-30 07:40:00,
2013-04-30 03:42:00,55.8,55.2,30.00,WNW,300,0.0,0.0,98,0.00,,,0.00,VWS V14.00,2013-04-30 07:42:00,
2013-04-30 03:45:00,55.8,55.2,30.00,WNW,300,0.0,0.0,98,0.00,,,0.00,VWS V14.00,2013-04-30 07:45:00,
2013-04-30 03:47:00,55.6,55.0,30.00,WNW,300,0.0,0.0,98,0.00,,,0.00,VWS V14.00,2013-04-30 07:47:00,
2013-04-30 03:50:00,55.8,55.2,30.00,WNW,300,0.0,0.0,98,0.00,,,0.00,VWS V14.00,2013-04-30 07:50:00,
2013-04-30 03:52:00,55.6,55.0,30.00,WNW,300,0.0,0.0,98,0.00,,,0.00,VWS V14.00,2013-04-30 07:52:00,
2013-04-30 03:55:00,55.6,55.0,30.00,WNW,300,0.0,0.0,98,0.00,,,0.00,VWS V14.00,2013-04-30 07:55:00,
2013-04-30 03:57:00,55.6,55.0,30.03,WNW,300,0.0,0.0,98,0.00,,,0.00,VWS V14.00,2013-04-30 07:57:00,
2013-04-30 04:00:00,55.6,55.0,30.00,WNW,300,0.0,0.0,98,0.00,,,0.00,VWS V14.00,2013-04-30 08:00:00,
2013-04-30 04:02:00,55.6,55.0,30.03,WNW,300,0.0,0.0,98,0.00,,,0.00,VWS V14.00,2013-04-30 08:02:00,
2013-04-30 04:05:00,55.6,55.0,30.03,WNW,300,0.0,0.0,98,0.00,,,0.00,VWS V14.00,2013-04-30 08:05:00,
2013-04-30 04:07:00,55.6,55.0,30.03,WNW,300,0.0,0.0,98,0.00,,,0.00,VWS V14.00,2013-04-30 08:07:00,
2013-04-30 04:10:00,55.6,55.0,30.03,WNW,300,0.0,0.0,98,0.00,,,0.00,VWS V14.00,2013-04-30 08:10:00,
2013-04-30 04:12:00,55.4,54.8,30.03,WNW,300,0.0,0.0,98,0.00,,,0.00,VWS V14.00,2013-04-30 08:12:00,
2013-04-30 04:15:00,55.6,55.0,30.03,WNW,300,0.0,0.0,98,0.00,,,0.00,VWS V14.00,2013-04-30 08:15:00,
2013-04-30 04:17:00,55.4,54.8,30.03,WNW,300,0.0,0.0,98,0.00,,,0.00,VWS V14.00,2013-04-30 08:17:00,
2013-04-30 04:20:00,55.4,54.8,30.03,WNW,300,0.0,0.0,98,0.00,,,0.00,VWS V14.00,2013-04-30 08:20:00,
2013-04-30 04:22:00,55.2,54.7,30.03,WNW,300,0.0,0.0,98,0.00,,,0.00,VWS V14.00,2013-04-30 08:22:00,
2013-04-30 04:25:00,55.4,54.8,30.03,WNW,300,0.0,0.0,98,0.00,,,0.00,VWS V14.00,2013-04-30 08:25:00,
2013-04-30 04:27:00,55.0,54.5,30.03,WNW,300,0.0,0.0,98,0.00,,,0.00,VWS V14.00,2013-04-30 08:27:00,
2013-04-30 04:30:00,55.2,54.7,30.03,WNW,300,0.0,0.0,98,0.00,,,0.00,VWS V14.00,2013-04-30 08:30:00,
2013-04-30 04:32:00,54.9,54.3,30.03,WNW,300,0.0,0.0,98,0.00,,,0.00,VWS V14.00,2013-04-30 08:32:00,
2013-04-30 04:35:00,55.0,54.5,30.03,WNW,300,0.0,0.0,98,0.00,,,0.00,VWS V14.00,2013-04-30 08:35:00,
2013-04-30 04:37:00,54.7,54.1,30.03,WNW,300,0.0,0.0,98,0.00,,,0.00,VWS V14.00,2013-04-30 08:37:00,
2013-04-30 04:40:00,54.9,54.3,30.03,WNW,300,0.0,0.0,98,0.00,,,0.00,VWS V14.00,2013-04-30 08:40:00,
2013-04-30 04:42:00,54.7,54.1,30.03,WNW,300,0.0,0.0,98,0.00,,,0.00,VWS V14.00,2013-04-30 08:42:00,
2013-04-30 04:45:00,54.7,54.1,30.03,WNW,300,0.0,0.0,98,0.00,,,0.00,VWS V14.00,2013-04-30 08:45:00,
2013-04-30 04:47:00,54.5,54.0,30.03,WNW,300,0.0,0.0,98,0.00,,,0.00,VWS V14.00,2013-04-30 08:47:00,
2013-04-30 04:50:00,54.7,54.1,30.03,WNW,300,0.0,0.0,98,0.00,,,0.00,VWS V14.00,2013-04-30 08:50:00,
2013-04-30 04:52:00,54.5,54.0,30.03,WNW,300,0.0,0.0,98,0.00,,,0.00,VWS V14.00,2013-04-30 08:52:00,
2013-04-30 04:55:00,54.5,54.0,30.03,WNW,300,0.0,0.0,98,0.00,,,0.00,VWS V14.00,2013-04-30 08:55:00,
2013-04-30 04:57:00,54.5,54.0,30.06,WNW,300,0.0,0.0,98,0.00,,,0.00,VWS V14.00,2013-04-30 08:57:00,
2013-04-30 05:00:00,54.5,54.0,30.03,WNW,300,0.0,0.0,98,0.00,,,0.00,VWS V14.00,2013-04-30 09:00:00,
2013-04-30 05:02:00,54.5,54.0,30.06,WNW,300,0.0,0.0,98,0.00,,,0.00,VWS V14.00,2013-04-30 09:02:00,
2013-04-30 05:05:00,54.5,54.0,30.06,WNW,300,0.0,0.0,98,0.00,,,0.00,VWS V14.00,2013-04-30 09:05:00,
2013-04-30 05:07:00,54.3,53.8,30.06,WNW,300,0.0,0.0,98,0.00,,,0.00,VWS V14.00,2013-04-30 09:07:00,
2013-04-30 05:10:00,54.5,54.0,30.06,WNW,300,0.0,0.0,98,0.00,,,0.00,VWS V14.00,2013-04-30 09:10:00,
2013-04-30 05:12:00,54.1,53.6,30.06,WNW,300,0.0,0.0,98,0.00,,,0.00,VWS V14.00,2013-04-30 09:12:00,
2013-04-30 05:15:00,54.3,53.8,30.06,WNW,300,0.0,0.0,98,0.00,,,0.00,VWS V14.00,2013-04-30 09:15:00,
2013-04-30 05:17:00,54.0,53.4,30.06,WNW,300,0.0,0.0,98,0.00,,,0.00,VWS V14.00,2013-04-30 09:17:00,
2013-04-30 05:20:00,54.1,53.6,30.06,WNW,300,0.0,0.0,98,0.00,,,0.00,VWS V14.00,2013-04-30 09:20:00,
2013-04-30 05:22:00,54.0,53.4,30.06,WNW,300,0.0,0.0,98,0.00,,,0.00,VWS V14.00,2013-04-30 09:22:00,
2013-04-30 05:25:00,54.0,53.4,30.06,WNW,300,0.0,0.0,98,0.00,,,0.00,VWS V14.00,2013-04-30 09:25:00,
2013-04-30 05:27:00,54.0,53.4,30.06,WNW,300,0.0,0.0,98,0.00,,,0.00,VWS V14.00,2013-04-30 09:27:00,
2013-04-30 05:30:00,54.0,53.4,30.06,WNW,300,0.0,0.0,98,0.00,,,0.00,VWS V14.00,2013-04-30 09:30:00,
2013-04-30 05:32:00,53.8,53.2,30.06,WNW,300,0.0,0.0,98,0.00,,,0.00,VWS V14.00,2013-04-30 09:32:00,
2013-04-30 05:35:00,54.0,53.4,30.06,WNW,300,0.0,0.0,98,0.00,,,0.00,VWS V14.00,2013-04-30 09:35:00,
2013-04-30 05:37:00,53.8,53.2,30.06,WNW,300,0.0,0.0,98,0.00,,,0.00,VWS V14.00,2013-04-30 09:37:00,
2013-04-30 05:40:00,53.8,53.2,30.06,WNW,300,0.0,0.0,98,0.00,,,0.00,VWS V14.00,2013-04-30 09:40:00,
2013-04-30 05:42:00,53.8,53.2,30.06,WNW,300,0.0,0.0,98,0.00,,,0.00,VWS V14.00,2013-04-30 09:42:00,
2013-04-30 05:45:00,53.8,53.2,30.06,WNW,300,0.0,0.0,98,0.00,,,0.00,VWS V14.00,2013-04-30 09:45:00,
2013-04-30 05:47:00,53.8,53.2,30.06,WNW,300,0.0,0.0,98,0.00,,,0.00,VWS V14.00,2013-04-30 09:47:00,
2013-04-30 05:50:00,53.8,53.2,30.06,WNW,300,0.0,0.0,98,0.00,,,0.00,VWS V14.00,2013-04-30 09:50:00,
2013-04-30 05:52:00,54.0,53.4,30.06,WNW,300,0.0,0.0,98,0.00,,,0.00,VWS V14.00,2013-04-30 09:52:00,
2013-04-30 05:55:00,53.8,53.2,30.06,WNW,300,0.0,0.0,98,0.00,,,0.00,VWS V14.00,2013-04-30 09:55:00,
2013-04-30 05:57:00,54.0,53.4,30.06,WNW,300,0.0,0.0,98,0.00,,,0.00,VWS V14.00,2013-04-30 09:57:00,
2013-04-30 06:00:00,54.0,53.4,30.06,WNW,300,0.0,0.0,98,0.00,,,0.00,VWS V14.00,2013-04-30 10:00:00,
2013-04-30 06:05:00,54.0,53.4,30.06,WNW,300,0.0,0.0,98,0.00,,,0.00,VWS V14.00,2013-04-30 10:05:00,
2013-04-30 06:06:00,54.0,53.4,30.06,WNW,300,0.0,0.0,98,0.00,,,0.00,VWS V14.00,2013-04-30 10:06:00,
2013-04-30 06:08:00,54.0,53.4,30.06,WNW,300,0.0,0.0,98,0.00,,,0.00,VWS V14.00,2013-04-30 10:08:00,
2013-04-30 06:09:00,54.0,53.4,30.06,WNW,300,0.0,0.0,98,0.00,,,0.00,VWS V14.00,2013-04-30 10:09:00,
2013-04-30 06:10:00,54.0,53.4,30.06,WNW,300,0.0,0.0,98,0.00,,,0.00,VWS V14.00,2013-04-30 10:10:00,
2013-04-30 06:11:00,54.1,53.6,30.06,WNW,300,0.0,0.0,98,0.00,,,0.00,VWS V14.00,2013-04-30 10:11:00,
2013-04-30 06:12:00,54.0,53.4,30.06,WNW,300,0.0,0.0,98,0.00,,,0.00,VWS V14.00,2013-04-30 10:12:00,
2013-04-30 06:15:00,54.0,53.4,30.06,WNW,300,0.0,0.0,98,0.00,,,0.00,VWS V14.00,2013-04-30 10:15:00,
2013-04-30 06:16:00,54.1,53.6,30.03,WNW,300,0.0,0.0,98,0.00,,,0.00,VWS V14.00,2013-04-30 10:16:00,
2013-04-30 06:20:00,54.1,53.6,30.03,WNW,300,0.0,0.0,98,0.00,,,0.00,VWS V14.00,2013-04-30 10:20:00,
2013-04-30 06:21:00,54.3,53.8,30.03,WNW,300,0.0,0.0,98,0.00,,,0.00,VWS V14.00,2013-04-30 10:21:00,
2013-04-30 06:25:00,54.1,53.6,30.03,WNW,300,0.0,0.0,98,0.00,,,0.00,VWS V14.00,2013-04-30 10:25:00,
2013-04-30 06:26:00,54.3,53.8,30.03,WNW,300,0.0,0.0,98,0.00,,,0.00,VWS V14.00,2013-04-30 10:26:00,
2013-04-30 06:30:00,54.3,53.8,30.03,WNW,300,0.0,0.0,98,0.00,,,0.00,VWS V14.00,2013-04-30 10:30:00,
2013-04-30 06:31:00,54.5,54.0,30.06,WNW,300,0.0,0.0,98,0.00,,,0.00,VWS V14.00,2013-04-30 10:31:00,
2013-04-30 06:35:00,54.5,54.0,30.06,WNW,300,0.0,0.0,98,0.00,,,0.00,VWS V14.00,2013-04-30 10:35:00,
2013-04-30 06:36:00,54.5,54.0,30.06,WNW,300,0.0,0.0,98,0.00,,,0.00,VWS V14.00,2013-04-30 10:36:00,
2013-04-30 06:40:00,54.5,54.0,30.06,WNW,300,0.0,0.0,98,0.00,,,0.00,VWS V14.00,2013-04-30 10:40:00,
2013-04-30 06:41:00,54.9,54.3,30.06,SE,142,0.0,1.3,98,0.00,,,0.00,VWS V14.00,2013-04-30 10:41:00,
2013-04-30 06:45:00,54.5,54.0,30.06,WNW,300,0.0,0.0,98,0.00,,,0.00,VWS V14.00,2013-04-30 10:45:00,
2013-04-30 06:46:00,55.0,54.5,30.06,SE,142,0.0,0.0,98,0.00,,,0.00,VWS V14.00,2013-04-30 10:46:00,
2013-04-30 06:50:00,54.9,54.3,30.06,SE,142,0.0,1.3,98,0.00,,,0.00,VWS V14.00,2013-04-30 10:50:00,
2013-04-30 06:51:00,55.0,54.5,30.06,SE,142,0.0,0.0,98,0.00,,,0.00,VWS V14.00,2013-04-30 10:51:00,
2013-04-30 06:55:00,55.0,54.5,30.06,SE,142,0.0,0.0,98,0.00,,,0.00,VWS V14.00,2013-04-30 10:55:00,
2013-04-30 06:56:00,55.2,54.7,30.09,WNW,300,0.0,0.0,98,0.00,,,0.00,VWS V14.00,2013-04-30 10:56:00,
2013-04-30 07:00:00,55.0,54.5,30.06,SE,142,0.0,0.0,98,0.00,,,0.00,VWS V14.00,2013-04-30 11:00:00,
2013-04-30 07:01:00,55.4,54.8,30.09,WNW,300,0.0,0.0,98,0.00,,,0.00,VWS V14.00,2013-04-30 11:01:00,
2013-04-30 07:05:00,55.2,54.7,30.09,WNW,300,0.0,0.0,98,0.00,,,0.00,VWS V14.00,2013-04-30 11:05:00,
2013-04-30 07:06:00,55.6,55.0,30.09,WNW,300,0.0,0.0,98,0.00,,,0.00,VWS V14.00,2013-04-30 11:06:00,
2013-04-30 07:10:00,55.4,54.8,30.09,WNW,300,0.0,0.0,98,0.00,,,0.00,VWS V14.00,2013-04-30 11:10:00,
2013-04-30 07:11:00,55.8,55.2,30.09,West,278,0.0,0.0,98,0.00,,,0.00,VWS V14.00,2013-04-30 11:11:00,
2013-04-30 07:15:00,55.6,55.0,30.09,WNW,300,0.0,0.0,98,0.00,,,0.00,VWS V14.00,2013-04-30 11:15:00,
2013-04-30 07:17:00,55.9,55.4,30.09,West,278,0.0,0.0,98,0.00,,,0.00,VWS V14.00,2013-04-30 11:17:00,
2013-04-30 07:20:00,55.8,55.2,30.09,West,278,0.0,0.0,98,0.00,,,0.00,VWS V14.00,2013-04-30 11:20:00,
2013-04-30 07:22:00,55.9,55.4,30.09,West,278,0.0,0.0,98,0.00,,,0.00,VWS V14.00,2013-04-30 11:22:00,
2013-04-30 07:25:00,55.9,55.4,30.09,West,278,0.0,0.0,98,0.00,,,0.00,VWS V14.00,2013-04-30 11:25:00,
2013-04-30 07:27:00,56.1,55.6,30.09,West,278,0.0,0.0,98,0.00,,,0.00,VWS V14.00,2013-04-30 11:27:00,
2013-04-30 07:30:00,55.9,55.4,30.09,West,278,0.0,0.0,98,0.00,,,0.00,VWS V14.00,2013-04-30 11:30:00,
2013-04-30 07:32:00,56.1,55.6,30.09,NW,322,0.0,0.0,98,0.00,,,0.00,VWS V14.00,2013-04-30 11:32:00,
2013-04-30 07:35:00,56.1,55.6,30.09,West,278,0.0,0.0,98,0.00,,,0.00,VWS V14.00,2013-04-30 11:35:00,
2013-04-30 07:37:00,56.1,55.6,30.09,WNW,300,0.0,0.0,98,0.00,,,0.00,VWS V14.00,2013-04-30 11:37:00,
2013-04-30 07:40:00,56.1,55.6,30.09,NW,322,0.0,1.1,98,0.00,,,0.00,VWS V14.00,2013-04-30 11:40:00,
2013-04-30 07:42:00,56.3,55.8,30.12,NNW,345,0.0,0.0,98,0.00,,,0.00,VWS V14.00,2013-04-30 11:42:00,
2013-04-30 07:45:00,56.1,55.6,30.09,West,278,0.0,0.0,98,0.00,,,0.00,VWS V14.00,2013-04-30 11:45:00,
2013-04-30 07:47:00,56.3,55.8,30.12,West,278,0.0,0.0,98,0.00,,,0.00,VWS V14.00,2013-04-30 11:47:00,
2013-04-30 07:50:00,56.3,55.7,30.12,NNW,345,0.0,0.0,98,0.00,,,0.00,VWS V14.00,2013-04-30 11:50:00,
2013-04-30 07:52:00,56.3,55.8,30.12,WSW,255,0.0,0.0,98,0.00,,,0.00,VWS V14.00,2013-04-30 11:52:00,
2013-04-30 07:55:00,56.3,55.7,30.12,West,278,0.0,0.0,98,0.00,,,0.00,VWS V14.00,2013-04-30 11:55:00,
2013-04-30 07:57:00,56.3,55.8,30.09,WSW,255,0.0,0.0,98,0.00,,,0.00,VWS V14.00,2013-04-30 11:57:00,
2013-04-30 08:00:00,56.3,55.7,30.12,WSW,255,0.0,0.0,98,0.00,,,0.00,VWS V14.00,2013-04-30 12:00:00,
2013-04-30 08:02:00,56.3,55.8,30.09,WSW,255,0.0,0.0,98,0.00,,,0.00,VWS V14.00,2013-04-30 12:02:00,
2013-04-30 08:05:00,56.3,55.7,30.09,WSW,255,0.0,0.0,98,0.00,,,0.00,VWS V14.00,2013-04-30 12:05:00,
2013-04-30 08:07:00,56.5,55.9,30.09,WSW,255,0.0,0.0,98,0.00,,,0.00,VWS V14.00,2013-04-30 12:07:00,
2013-04-30 08:10:00,56.3,55.7,30.09,WSW,255,0.0,0.0,98,0.00,,,0.00,VWS V14.00,2013-04-30 12:10:00,
2013-04-30 08:12:00,56.5,55.9,30.12,WSW,255,0.0,0.0,98,0.00,,,0.00,VWS V14.00,2013-04-30 12:12:00,
2013-04-30 08:15:00,56.5,55.9,30.09,WSW,255,0.0,0.0,98,0.00,,,0.00,VWS V14.00,2013-04-30 12:15:00,
2013-04-30 08:17:00,56.5,55.9,30.12,SSE,165,0.0,0.0,98,0.00,,,0.00,VWS V14.00,2013-04-30 12:17:00,
2013-04-30 08:20:00,56.5,55.9,30.12,WSW,255,0.0,0.0,98,0.00,,,0.00,VWS V14.00,2013-04-30 12:20:00,
2013-04-30 08:22:00,56.5,55.9,30.12,WSW,255,0.0,0.0,98,0.00,,,0.00,VWS V14.00,2013-04-30 12:22:00,
2013-04-30 08:25:00,56.5,55.9,30.12,SSE,165,0.0,0.0,98,0.00,,,0.00,VWS V14.00,2013-04-30 12:25:00,
2013-04-30 08:28:00,56.7,56.1,30.12,NE,52,0.0,0.0,98,0.00,,,0.00,VWS V14.00,2013-04-30 12:28:00,
2013-04-30 08:30:00,56.5,55.9,30.12,WSW,255,0.0,0.0,98,0.00,,,0.00,VWS V14.00,2013-04-30 12:30:00,
2013-04-30 08:33:00,56.7,56.1,30.12,WNW,300,0.0,0.0,98,0.00,,,0.00,VWS V14.00,2013-04-30 12:33:00,
2013-04-30 08:35:00,56.5,55.9,30.12,WSW,255,0.0,0.0,98,0.00,,,0.00,VWS V14.00,2013-04-30 12:35:00,
2013-04-30 08:38:00,56.7,56.1,30.12,WSW,255,0.0,0.0,98,0.00,,,0.00,VWS V14.00,2013-04-30 12:38:00,
2013-04-30 08:40:00,56.7,56.1,30.12,WNW,300,0.0,2.0,98,0.00,,,0.00,VWS V14.00,2013-04-30 12:40:00,
2013-04-30 08:43:00,56.7,56.1,30.12,WNW,300,0.0,0.0,98,0.00,,,0.00,VWS V14.00,2013-04-30 12:43:00,
2013-04-30 08:45:00,56.7,56.1,30.12,West,278,0.0,0.0,98,0.00,,,0.00,VWS V14.00,2013-04-30 12:45:00,
2013-04-30 08:48:00,56.8,56.3,30.12,West,278,0.0,0.0,98,0.00,,,0.00,VWS V14.00,2013-04-30 12:48:00,
2013-04-30 08:50:00,56.7,56.1,30.12,WNW,300,0.0,1.1,98,0.00,,,0.00,VWS V14.00,2013-04-30 12:50:00,
2013-04-30 08:53:00,56.8,56.3,30.12,WNW,300,0.0,0.0,98,0.00,,,0.00,VWS V14.00,2013-04-30 12:53:00,
2013-04-30 08:55:00,56.7,56.1,30.12,West,278,0.0,0.0,98,0.00,,,0.00,VWS V14.00,2013-04-30 12:55:00,
2013-04-30 08:58:00,56.8,56.3,30.12,WNW,300,0.0,0.0,98,0.00,,,0.00,VWS V14.00,2013-04-30 12:58:00,
2013-04-30 09:00:00,56.8,56.3,30.12,West,278,0.0,0.0,98,0.00,,,0.00,VWS V14.00,2013-04-30 13:00:00,
2013-04-30 09:03:00,57.0,56.5,30.12,SE,142,0.0,0.0,98,0.00,,,0.00,VWS V14.00,2013-04-30 13:03:00,
2013-04-30 09:05:00,56.8,56.3,30.12,WNW,300,0.0,0.0,98,0.00,,,0.00,VWS V14.00,2013-04-30 13:05:00,
2013-04-30 09:08:00,57.0,56.5,30.12,SW,232,0.0,0.9,98,0.00,,,0.00,VWS V14.00,2013-04-30 13:08:00,
2013-04-30 09:10:00,57.0,56.5,30.12,SE,142,0.0,0.0,98,0.00,,,0.00,VWS V14.00,2013-04-30 13:10:00,
2013-04-30 09:13:00,57.2,56.6,30.12,SW,232,0.0,0.0,98,0.00,,,0.00,VWS V14.00,2013-04-30 13:13:00,
2013-04-30 09:15:00,57.0,56.5,30.12,SW,232,0.9,1.6,98,0.00,,,0.00,VWS V14.00,2013-04-30 13:15:00,
2013-04-30 09:18:00,57.2,56.6,30.12,West,278,0.0,0.0,98,0.00,,,0.00,VWS V14.00,2013-04-30 13:18:00,
2013-04-30 09:20:00,57.2,56.6,30.12,SW,232,0.0,0.9,98,0.00,,,0.00,VWS V14.00,2013-04-30 13:20:00,
2013-04-30 09:24:00,57.2,56.6,30.12,WNW,300,0.0,0.0,98,0.00,,,0.00,VWS V14.00,2013-04-30 13:24:00,
2013-04-30 09:25:00,57.2,56.6,30.12,SE,142,0.0,0.0,98,0.00,,,0.00,VWS V14.00,2013-04-30 13:25:00,
2013-04-30 09:29:00,57.2,56.6,30.12,West,278,0.0,0.0,98,0.00,,,0.00,VWS V14.00,2013-04-30 13:29:00,
2013-04-30 09:30:00,57.2,56.6,30.12,West,278,0.0,0.0,98,0.00,,,0.00,VWS V14.00,2013-04-30 13:30:00,
2013-04-30 09:34:00,57.4,56.8,30.12,West,278,0.0,0.0,98,0.00,,,0.00,VWS V14.00,2013-04-30 13:34:00,
2013-04-30 09:35:00,57.2,56.6,30.12,WNW,300,0.0,0.0,98,0.00,,,0.00,VWS V14.00,2013-04-30 13:35:00,
2013-04-30 09:39:00,57.6,57.0,30.12,NE,52,0.0,0.0,98,0.00,,,0.00,VWS V14.00,2013-04-30 13:39:00,
2013-04-30 09:40:00,57.4,56.8,30.12,WNW,300,0.0,0.0,98,0.00,,,0.00,VWS V14.00,2013-04-30 13:40:00,
2013-04-30 09:44:00,57.6,57.0,30.12,SSE,165,0.0,1.3,98,0.00,,,0.00,VWS V14.00,2013-04-30 13:44:00,
2013-04-30 09:45:00,57.6,57.0,30.12,East,98,0.0,2.0,98,0.00,,,0.00,VWS V14.00,2013-04-30 13:45:00,
2013-04-30 09:49:00,57.9,57.4,30.12,SE,142,0.0,0.0,98,0.00,,,0.00,VWS V14.00,2013-04-30 13:49:00,
2013-04-30 09:50:00,57.6,57.0,30.12,SE,142,0.0,0.9,98,0.00,,,0.00,VWS V14.00,2013-04-30 13:50:00,
2013-04-30 09:54:00,58.1,57.5,30.12,SE,142,0.0,1.6,98,0.00,,,0.00,VWS V14.00,2013-04-30 13:54:00,
2013-04-30 09:55:00,57.7,57.2,30.12,SSE,165,0.0,1.3,98,0.00,,,0.00,VWS V14.00,2013-04-30 13:55:00,
2013-04-30 09:59:00,58.1,57.5,30.12,SE,142,0.0,0.0,98,0.00,,,0.00,VWS V14.00,2013-04-30 13:59:00,
2013-04-30 10:00:00,57.9,57.4,30.12,SE,142,0.0,0.0,98,0.00,,,0.00,VWS V14.00,2013-04-30 14:00:00,
2013-04-30 10:04:00,58.3,57.7,30.12,North,8,0.0,2.0,98,0.00,,,0.00,VWS V14.00,2013-04-30 14:04:00,
2013-04-30 10:05:00,58.1,57.5,30.12,South,188,0.0,1.6,98,0.00,,,0.00,VWS V14.00,2013-04-30 14:05:00,
2013-04-30 10:09:00,58.5,57.9,30.12,SW,232,0.0,0.0,98,0.00,,,0.00,VWS V14.00,2013-04-30 14:09:00,
2013-04-30 10:10:00,58.3,57.7,30.12,SW,232,0.0,0.0,98,0.00,,,0.00,VWS V14.00,2013-04-30 14:10:00,
2013-04-30 10:14:00,58.6,58.1,30.12,SW,232,0.0,0.0,98,0.00,,,0.00,VWS V14.00,2013-04-30 14:14:00,
2013-04-30 10:15:00,58.5,57.9,30.12,NE,52,0.0,2.0,98,0.00,,,0.00,VWS V14.00,2013-04-30 14:15:00,
2013-04-30 10:20:00,58.8,58.3,30.12,NNE,30,1.3,1.6,98,0.00,,,0.00,VWS V14.00,2013-04-30 14:20:00,
2013-04-30 10:25:00,58.8,58.3,30.12,SE,142,0.0,0.0,98,0.00,,,0.00,VWS V14.00,2013-04-30 14:25:00,
2013-04-30 10:30:00,59.0,58.4,30.12,ENE,75,1.1,2.0,98,0.00,,,0.00,VWS V14.00,2013-04-30 14:30:00,
2013-04-30 10:35:00,59.0,58.4,30.12,SSE,165,0.0,1.3,98,0.00,,,0.00,VWS V14.00,2013-04-30 14:35:00,
2013-04-30 10:40:00,58.8,58.3,30.12,SE,142,1.1,2.5,98,0.00,,,0.00,VWS V14.00,2013-04-30 14:40:00,
2013-04-30 10:45:00,58.8,58.3,30.12,ESE,120,0.0,0.0,98,0.00,,,0.00,VWS V14.00,2013-04-30 14:45:00,
2013-04-30 10:50:00,59.0,58.2,30.12,SE,142,0.0,0.0,97,0.00,,,0.00,VWS V14.00,2013-04-30 14:50:00,
2013-04-30 10:55:00,59.2,58.3,30.12,NNW,345,0.0,0.0,97,0.00,,,0.00,VWS V14.00,2013-04-30 14:55:00,
2013-04-30 11:00:00,59.2,58.3,30.15,NNW,345,0.0,1.3,97,0.00,,,0.00,VWS V14.00,2013-04-30 15:00:00,
2013-04-30 11:05:00,59.4,58.5,30.15,ENE,75,0.0,1.3,97,0.00,,,0.00,VWS V14.00,2013-04-30 15:05:00,
2013-04-30 11:10:00,59.4,58.2,30.15,ESE,120,0.0,3.6,96,0.00,,,0.00,VWS V14.00,2013-04-30 15:10:00,
2013-04-30 11:15:00,59.7,58.6,30.15,SE,142,2.0,2.0,96,0.00,,,0.00,VWS V14.00,2013-04-30 15:15:00,
2013-04-30 11:20:00,59.5,58.4,30.15,NE,52,2.0,3.6,96,0.00,,,0.00,VWS V14.00,2013-04-30 15:20:00,
2013-04-30 11:21:00,59.9,58.8,30.15,SE,142,1.3,2.5,96,0.00,,,0.00,VWS V14.00,2013-04-30 15:21:00,
2013-04-30 11:25:00,59.7,58.6,30.15,SE,142,0.0,2.0,96,0.00,,,0.00,VWS V14.00,2013-04-30 15:25:00,
2013-04-30 11:26:00,60.1,58.7,30.15,SE,142,0.0,1.3,95,0.00,,,0.00,VWS V14.00,2013-04-30 15:26:00,
2013-04-30 11:30:00,59.9,58.5,30.15,SE,142,1.3,2.5,95,0.00,,,0.00,VWS V14.00,2013-04-30 15:30:00,
2013-04-30 11:31:00,60.1,58.7,30.15,NW,322,0.0,0.0,95,0.00,,,0.00,VWS V14.00,2013-04-30 15:31:00,
2013-04-30 11:35:00,60.1,58.7,30.15,SE,142,0.0,1.3,95,0.00,,,0.00,VWS V14.00,2013-04-30 15:35:00,
2013-04-30 11:36:00,60.1,58.7,30.15,East,98,0.0,2.0,95,0.00,,,0.00,VWS V14.00,2013-04-30 15:36:00,
2013-04-30 11:40:00,60.1,58.7,30.15,NW,322,0.0,0.0,95,0.00,,,0.00,VWS V14.00,2013-04-30 15:40:00,
2013-04-30 11:41:00,60.4,58.7,30.15,SE,142,0.0,2.7,94,0.00,,,0.00,VWS V14.00,2013-04-30 15:41:00,
2013-04-30 11:45:00,60.1,58.7,30.15,ESE,120,2.7,2.7,95,0.00,,,0.00,VWS V14.00,2013-04-30 15:45:00,
2013-04-30 11:46:00,60.6,58.9,30.12,SE,142,0.9,2.2,94,0.00,,,0.00,VWS V14.00,2013-04-30 15:46:00,
2013-04-30 11:50:00,60.4,58.7,30.12,SE,142,0.0,2.7,94,0.00,,,0.00,VWS V14.00,2013-04-30 15:50:00,
2013-04-30 11:51:00,60.6,58.9,30.12,South,188,0.0,2.0,94,0.00,,,0.00,VWS V14.00,2013-04-30 15:51:00,
2013-04-30 11:55:00,60.6,58.9,30.12,SE,142,0.0,2.2,94,0.00,,,0.00,VWS V14.00,2013-04-30 15:55:00,
2013-04-30 11:56:00,61.0,59.0,30.12,SE,142,0.0,3.6,93,0.00,,,0.00,VWS V14.00,2013-04-30 15:56:00,
2013-04-30 12:00:00,60.8,58.8,30.12,SE,142,0.0,2.0,93,0.00,,,0.00,VWS V14.00,2013-04-30 16:00:00,
2013-04-30 12:05:00,61.0,59.0,30.12,SE,142,0.0,3.6,93,0.00,,,0.00,VWS V14.00,2013-04-30 16:05:00,
2013-04-30 12:06:00,61.3,58.7,30.12,WNW,300,2.2,2.9,91,0.00,,,0.00,VWS V14.00,2013-04-30 16:06:00,
2013-04-30 12:08:00,61.3,59.3,30.12,NNW,345,0.0,0.0,93,0.00,,,0.00,VWS V14.00,2013-04-30 16:08:00,
2013-04-30 12:09:00,61.3,59.3,30.12,NNW,345,0.0,0.0,93,0.00,,,0.00,VWS V14.00,2013-04-30 16:09:00,
2013-04-30 12:10:00,61.5,59.5,30.12,ESE,120,1.1,1.1,93,0.00,,,0.00,VWS V14.00,2013-04-30 16:10:00,
2013-04-30 12:11:00,61.3,58.7,30.12,NW,322,0.0,1.3,91,0.00,,,0.00,VWS V14.00,2013-04-30 16:11:00,
2013-04-30 12:12:00,61.3,59.0,30.12,SE,142,0.0,2.0,92,0.00,,,0.00,VWS V14.00,2013-04-30 16:12:00,
2013-04-30 12:15:00,61.3,58.7,30.12,NW,322,1.3,2.9,91,0.00,,,0.00,VWS V14.00,2013-04-30 16:15:00,
2013-04-30 12:16:00,61.5,58.9,30.12,SW,232,0.0,2.0,91,0.00,,,0.00,VWS V14.00,2013-04-30 16:16:00,
2013-04-30 12:20:00,61.3,58.7,30.12,NNW,345,2.0,2.0,91,0.00,,,0.00,VWS V14.00,2013-04-30 16:20:00,
2013-04-30 12:21:00,61.7,59.0,30.12,SE,142,1.3,2.2,91,0.00,,,0.00,VWS V14.00,2013-04-30 16:21:00,
2013-04-30 12:25:00,61.5,58.9,30.12,SW,232,0.0,2.0,91,0.00,,,0.00,VWS V14.00,2013-04-30 16:25:00,
2013-04-30 12:26:00,61.9,59.2,30.12,West,278,1.3,2.0,91,0.00,,,0.00,VWS V14.00,2013-04-30 16:26:00,
2013-04-30 12:30:00,61.7,59.0,30.12,SE,142,0.0,2.2,91,0.00,,,0.00,VWS V14.00,2013-04-30 16:30:00,
2013-04-30 12:31:00,62.1,59.4,30.12,ESE,120,0.0,2.0,91,0.00,,,0.00,VWS V14.00,2013-04-30 16:31:00,
2013-04-30 12:35:00,61.9,59.2,30.12,West,278,0.9,2.0,91,0.00,,,0.00,VWS V14.00,2013-04-30 16:35:00,
2013-04-30 12:36:00,62.2,59.0,30.12,NW,322,0.0,3.1,89,0.00,,,0.00,VWS V14.00,2013-04-30 16:36:00,
2013-04-30 12:40:00,62.1,59.4,30.12,ESE,120,0.0,2.0,91,0.00,,,0.00,VWS V14.00,2013-04-30 16:40:00,
2013-04-30 12:41:00,62.4,59.5,30.12,West,278,0.0,0.0,90,0.00,,,0.00,VWS V14.00,2013-04-30 16:41:00,
2013-04-30 12:45:00,62.2,59.0,30.12,NW,322,0.0,3.1,89,0.00,,,0.00,VWS V14.00,2013-04-30 16:45:00,
2013-04-30 12:47:00,62.8,59.5,30.12,SE,142,2.2,2.2,89,0.00,,,0.00,VWS V14.00,2013-04-30 16:47:00,
2013-04-30 12:50:00,62.4,59.5,30.12,WNW,300,0.0,0.0,90,0.00,,,0.00,VWS V14.00,2013-04-30 16:50:00,
2013-04-30 12:52:00,63.0,59.4,30.12,NW,322,0.0,1.6,88,0.00,,,0.00,VWS V14.00,2013-04-30 16:52:00,
2013-04-30 12:55:00,62.8,59.5,30.12,SE,142,1.6,2.2,89,0.00,,,0.00,VWS V14.00,2013-04-30 16:55:00,
2013-04-30 12:57:00,63.1,58.9,30.12,ESE,120,1.6,3.8,86,0.00,,,0.00,VWS V14.00,2013-04-30 16:57:00,
2013-04-30 13:00:00,63.1,59.5,30.12,NW,322,0.0,1.6,88,0.00,,,0.00,VWS V14.00,2013-04-30 17:00:00,
2013-04-30 13:02:00,63.3,59.1,30.12,SE,142,2.5,2.5,86,0.00,,,0.00,VWS V14.00,2013-04-30 17:02:00,
2013-04-30 13:05:00,63.1,58.9,30.12,ESE,120,1.3,3.8,86,0.00,,,0.00,VWS V14.00,2013-04-30 17:05:00,
2013-04-30 13:07:00,63.7,59.1,30.12,SE,142,0.0,0.0,85,0.00,,,0.00,VWS V14.00,2013-04-30 17:07:00,
2013-04-30 13:10:00,63.3,59.1,30.12,SE,142,2.5,2.5,86,0.00,,,0.00,VWS V14.00,2013-04-30 17:10:00,
2013-04-30 13:12:00,64.0,59.1,30.09,ESE,120,0.0,0.9,84,0.00,,,0.00,VWS V14.00,2013-04-30 17:12:00,
2013-04-30 13:15:00,63.7,59.1,30.12,SE,142,0.0,2.5,85,0.00,,,0.00,VWS V14.00,2013-04-30 17:15:00,
2013-04-30 13:17:00,64.4,59.5,30.09,ESE,120,0.0,0.0,84,0.00,,,0.00,VWS V14.00,2013-04-30 17:17:00,
2013-04-30 13:20:00,64.0,59.1,30.09,ESE,120,0.9,4.3,84,0.00,,,0.00,VWS V14.00,2013-04-30 17:20:00,
2013-04-30 13:22:00,64.4,59.1,30.09,North,8,1.6,1.6,83,0.00,,,0.00,VWS V14.00,2013-04-30 17:22:00,
2013-04-30 13:25:00,64.4,59.5,30.09,ESE,120,0.0,0.9,84,0.00,,,0.00,VWS V14.00,2013-04-30 17:25:00,
2013-04-30 13:27:00,64.8,59.1,30.15,WNW,300,0.0,0.0,82,0.00,,,0.00,VWS V14.00,2013-04-30 17:27:00,
2013-04-30 13:30:00,64.4,59.1,30.09,ESE,120,1.3,2.9,83,0.00,,,0.00,VWS V14.00,2013-04-30 17:30:00,
2013-04-30 13:32:00,64.8,59.1,30.15,SE,142,0.0,0.0,82,0.00,,,0.00,VWS V14.00,2013-04-30 17:32:00,
2013-04-30 13:35:00,64.8,59.1,30.15,WNW,300,0.0,2.0,82,0.00,,,0.00,VWS V14.00,2013-04-30 17:35:00,
2013-04-30 13:37:00,64.9,59.3,30.15,SE,142,0.0,0.0,82,0.00,,,0.00,VWS V14.00,2013-04-30 17:37:00,
2013-04-30 13:40:00,64.8,59.1,30.15,SE,142,0.0,0.9,82,0.00,,,0.00,VWS V14.00,2013-04-30 17:40:00,
2013-04-30 13:42:00,64.8,59.1,30.09,SE,142,0.0,0.0,82,0.00,,,0.00,VWS V14.00,2013-04-30 17:42:00,
2013-04-30 13:45:00,64.9,59.3,30.15,SE,142,0.0,1.6,82,0.00,,,0.00,VWS V14.00,2013-04-30 17:45:00,
2013-04-30 13:47:00,64.8,59.1,30.09,WNW,300,0.0,0.0,82,0.00,,,0.00,VWS V14.00,2013-04-30 17:47:00,
2013-04-30 13:50:00,64.9,59.3,30.09,SE,142,0.0,0.0,82,0.00,,,0.00,VWS V14.00,2013-04-30 17:50:00,
2013-04-30 13:52:00,64.4,58.8,30.09,WNW,300,2.5,2.5,82,0.00,,,0.00,VWS V14.00,2013-04-30 17:52:00,
2013-04-30 13:55:00,64.8,59.1,30.09,WNW,300,0.0,1.6,82,0.00,,,0.00,VWS V14.00,2013-04-30 17:55:00,
2013-04-30 13:57:00,64.4,58.8,30.12,West,278,0.0,0.0,82,0.00,,,0.00,VWS V14.00,2013-04-30 17:57:00,
2013-04-30 14:00:00,64.4,58.8,30.09,WNW,300,0.0,2.5,82,0.00,,,0.00,VWS V14.00,2013-04-30 18:00:00,
2013-04-30 14:03:00,64.4,59.1,30.12,WNW,300,0.0,0.0,83,0.00,,,0.00,VWS V14.00,2013-04-30 18:03:00,
2013-04-30 14:05:00,64.4,58.8,30.12,West,278,0.0,2.5,82,0.00,,,0.00,VWS V14.00,2013-04-30 18:05:00,
2013-04-30 14:08:00,64.4,59.1,30.12,West,278,0.0,0.0,83,0.00,,,0.00,VWS V14.00,2013-04-30 18:08:00,
2013-04-30 14:10:00,64.4,59.1,30.12,WNW,300,0.0,1.3,83,0.00,,,0.00,VWS V14.00,2013-04-30 18:10:00,
2013-04-30 14:13:00,64.8,59.5,30.09,West,278,0.0,0.0,83,0.00,,,0.00,VWS V14.00,2013-04-30 18:13:00,
2013-04-30 14:15:00,64.4,58.8,30.12,West,278,0.0,2.0,82,0.00,,,0.00,VWS V14.00,2013-04-30 18:15:00,
2013-04-30 14:18:00,64.8,59.5,30.09,North,8,0.0,0.0,83,0.00,,,0.00,VWS V14.00,2013-04-30 18:18:00,
2013-04-30 14:20:00,64.6,59.3,30.09,West,278,0.0,0.0,83,0.00,,,0.00,VWS V14.00,2013-04-30 18:20:00,
2013-04-30 14:23:00,64.9,59.3,30.09,WNW,300,0.0,1.3,82,0.00,,,0.00,VWS V14.00,2013-04-30 18:23:00,
2013-04-30 14:25:00,64.8,59.5,30.09,WNW,300,0.0,1.6,83,0.00,,,0.00,VWS V14.00,2013-04-30 18:25:00,
2013-04-30 14:28:00,65.1,59.5,30.09,North,8,0.0,0.0,82,0.00,,,0.00,VWS V14.00,2013-04-30 18:28:00,
2013-04-30 14:30:00,64.9,59.3,30.09,WNW,300,1.3,1.6,82,0.00,,,0.00,VWS V14.00,2013-04-30 18:30:00,
2013-04-30 14:33:00,65.5,59.5,30.09,ENE,75,0.0,0.0,81,0.00,,,0.00,VWS V14.00,2013-04-30 18:33:00,
2013-04-30 14:35:00,64.9,59.3,30.09,North,8,0.0,1.3,82,0.00,,,0.00,VWS V14.00,2013-04-30 18:35:00,
2013-04-30 14:38:00,65.7,60.0,30.09,SE,142,0.0,0.0,82,0.00,,,0.00,VWS V14.00,2013-04-30 18:38:00,
2013-04-30 14:40:00,65.3,59.3,30.09,NW,322,0.0,2.0,81,0.00,,,0.00,VWS V14.00,2013-04-30 18:40:00,
2013-04-30 14:43:00,65.7,59.0,30.12,East,98,1.3,2.9,79,0.00,,,0.00,VWS V14.00,2013-04-30 18:43:00,
2013-04-30 14:45:00,65.7,60.0,30.09,ENE,75,0.0,1.1,82,0.00,,,0.00,VWS V14.00,2013-04-30 18:45:00,
2013-04-30 14:48:00,65.7,59.3,30.12,WSW,255,0.0,0.0,80,0.00,,,0.00,VWS V14.00,2013-04-30 18:48:00,
2013-04-30 14:50:00,65.7,59.3,30.12,ENE,75,1.1,2.7,80,0.00,,,0.00,VWS V14.00,2013-04-30 18:50:00,
2013-04-30 14:53:00,65.5,58.8,30.12,SE,142,1.3,2.0,79,0.00,,,0.00,VWS V14.00,2013-04-30 18:53:00,
2013-04-30 14:55:00,65.7,59.0,30.12,SE,142,0.0,2.9,79,0.00,,,0.00,VWS V14.00,2013-04-30 18:55:00,
2013-04-30 14:58:00,65.3,58.6,30.12,SE,142,0.0,1.1,79,0.00,,,0.00,VWS V14.00,2013-04-30 18:58:00,
2013-04-30 15:00:00,65.5,59.2,30.12,East,98,0.0,0.0,80,0.00,,,0.00,VWS V14.00,2013-04-30 19:00:00,
2013-04-30 15:04:00,65.1,58.5,30.12,ESE,120,0.0,0.0,79,0.00,,,0.00,VWS V14.00,2013-04-30 19:04:00,
2013-04-30 15:05:00,65.3,58.3,30.12,SE,142,0.0,2.0,78,0.00,,,0.00,VWS V14.00,2013-04-30 19:05:00,
2013-04-30 15:09:00,65.1,58.5,30.12,NNE,30,0.0,0.0,79,0.00,,,0.00,VWS V14.00,2013-04-30 19:09:00,
2013-04-30 15:10:00,65.1,58.5,30.12,North,8,0.0,1.1,79,0.00,,,0.00,VWS V14.00,2013-04-30 19:10:00,
2013-04-30 15:14:00,65.1,58.8,30.12,NNE,30,0.0,0.0,80,0.00,,,0.00,VWS V14.00,2013-04-30 19:14:00,
2013-04-30 15:15:00,65.1,58.5,30.12,South,188,0.0,0.0,79,0.00,,,0.00,VWS V14.00,2013-04-30 19:15:00,
2013-04-30 15:19:00,65.5,59.2,30.12,ESE,120,0.0,0.0,80,0.00,,,0.00,VWS V14.00,2013-04-30 19:19:00,
2013-04-30 15:20:00,65.1,58.8,30.12,NNE,30,0.0,0.0,80,0.00,,,0.00,VWS V14.00,2013-04-30 19:20:00,
2013-04-30 15:24:00,65.7,59.0,30.12,ENE,75,0.0,2.0,79,0.00,,,0.00,VWS V14.00,2013-04-30 19:24:00,
2013-04-30 15:25:00,65.3,59.0,30.12,ESE,120,0.0,0.0,80,0.00,,,0.00,VWS V14.00,2013-04-30 19:25:00,
2013-04-30 15:29:00,65.7,58.6,30.12,NNE,30,1.3,2.2,78,0.00,,,0.00,VWS V14.00,2013-04-30 19:29:00,
2013-04-30 15:30:00,65.5,59.2,30.12,NNE,30,1.1,2.0,80,0.00,,,0.00,VWS V14.00,2013-04-30 19:30:00,
2013-04-30 15:34:00,65.7,59.0,30.12,WNW,300,0.0,2.0,79,0.00,,,0.00,VWS V14.00,2013-04-30 19:34:00,
2013-04-30 15:35:00,65.7,59.0,30.12,East,98,1.1,2.0,79,0.00,,,0.00,VWS V14.00,2013-04-30 19:35:00,
2013-04-30 15:39:00,65.8,59.2,30.12,WNW,300,0.0,0.0,79,0.00,,,0.00,VWS V14.00,2013-04-30 19:39:00,
2013-04-30 15:40:00,65.7,58.6,30.12,NNW,345,0.0,2.2,78,0.00,,,0.00,VWS V14.00,2013-04-30 19:40:00,
2013-04-30 15:44:00,65.8,59.2,30.12,WNW,300,0.0,0.0,79,0.00,,,0.00,VWS V14.00,2013-04-30 19:44:00,
2013-04-30 15:45:00,65.7,59.0,30.12,WNW,300,0.0,2.0,79,0.00,,,0.00,VWS V14.00,2013-04-30 19:45:00,
2013-04-30 15:49:00,65.8,59.5,30.12,SE,142,5.4,5.4,80,0.00,,,0.00,VWS V14.00,2013-04-30 19:49:00,
2013-04-30 15:50:00,65.8,59.2,30.12,SE,142,0.0,0.0,79,0.00,,,0.00,VWS V14.00,2013-04-30 19:50:00,
2013-04-30 15:54:00,65.8,58.4,30.12,SE,142,0.0,2.5,77,0.00,,,0.00,VWS V14.00,2013-04-30 19:54:00,
2013-04-30 15:55:00,65.8,59.5,30.12,WNW,300,0.0,0.0,80,0.00,,,0.00,VWS V14.00,2013-04-30 19:55:00,
2013-04-30 15:59:00,65.8,58.4,30.09,SE,142,0.0,1.3,77,0.00,,,0.00,VWS V14.00,2013-04-30 19:59:00,
2013-04-30 16:00:00,65.8,58.1,30.12,SE,142,1.6,5.4,76,0.00,,,0.00,VWS V14.00,2013-04-30 20:00:00,
2013-04-30 16:04:00,65.8,58.4,30.09,SE,142,0.0,0.0,77,0.00,,,0.00,VWS V14.00,2013-04-30 20:04:00,
2013-04-30 16:05:00,65.8,58.4,30.09,SE,142,1.3,2.7,77,0.00,,,0.00,VWS V14.00,2013-04-30 20:05:00,
2013-04-30 16:09:00,65.7,58.3,30.09,SE,142,0.0,0.0,77,0.00,,,0.00,VWS V14.00,2013-04-30 20:09:00,
2013-04-30 16:10:00,65.8,58.4,30.09,SE,142,0.0,1.3,77,0.00,,,0.00,VWS V14.00,2013-04-30 20:10:00,
2013-04-30 16:14:00,65.7,58.3,30.12,SE,142,0.0,0.0,77,0.00,,,0.00,VWS V14.00,2013-04-30 20:14:00,
2013-04-30 16:15:00,65.8,58.4,30.09,SE,142,0.0,0.0,77,0.00,,,0.00,VWS V14.00,2013-04-30 20:15:00,
2013-04-30 16:19:00,65.8,58.4,30.12,SE,142,0.0,0.0,77,0.00,,,0.00,VWS V14.00,2013-04-30 20:19:00,
2013-04-30 16:20:00,65.8,58.4,30.12,SE,142,0.0,0.0,77,0.00,,,0.00,VWS V14.00,2013-04-30 20:20:00,
2013-04-30 16:25:00,66.0,58.6,30.12,NE,52,0.0,0.0,77,0.00,,,0.00,VWS V14.00,2013-04-30 20:25:00,
2013-04-30 16:30:00,66.0,58.2,30.15,East,98,0.0,0.0,76,0.00,,,0.00,VWS V14.00,2013-04-30 20:30:00,
2013-04-30 16:35:00,65.8,58.1,30.15,North,8,0.9,1.6,76,0.00,,,0.00,VWS V14.00,2013-04-30 20:35:00,
2013-04-30 16:40:00,65.3,57.5,30.15,SE,142,0.0,1.1,76,0.00,,,0.00,VWS V14.00,2013-04-30 20:40:00,
2013-04-30 16:45:00,65.1,57.7,30.12,WNW,300,0.0,0.0,77,0.00,,,0.00,VWS V14.00,2013-04-30 20:45:00,
2013-04-30 16:50:00,64.9,57.6,30.12,SW,232,0.0,0.0,77,0.00,,,0.00,VWS V14.00,2013-04-30 20:50:00,
2013-04-30 16:55:00,64.9,57.9,30.12,SW,232,0.0,0.0,78,0.00,,,0.00,VWS V14.00,2013-04-30 20:55:00,
2013-04-30 17:00:00,64.9,57.9,30.09,SW,232,0.0,0.0,78,0.00,,,0.00,VWS V14.00,2013-04-30 21:00:00,
2013-04-30 17:05:00,65.1,58.5,30.09,SW,232,0.0,0.0,79,0.00,,,0.00,VWS V14.00,2013-04-30 21:05:00,
2013-04-30 17:10:00,65.1,58.5,30.09,SW,232,0.0,0.0,79,0.00,,,0.00,VWS V14.00,2013-04-30 21:10:00,
2013-04-30 17:15:00,65.1,58.8,30.12,East,98,0.0,0.0,80,0.00,,,0.00,VWS V14.00,2013-04-30 21:15:00,
2013-04-30 17:20:00,64.9,57.9,30.12,SE,142,2.9,2.9,78,0.00,,,0.00,VWS V14.00,2013-04-30 21:20:00,
2013-04-30 17:25:00,64.6,57.6,30.12,NE,52,0.0,2.5,78,0.00,,,0.00,VWS V14.00,2013-04-30 21:25:00,
2013-04-30 17:30:00,64.8,57.8,30.12,NNW,345,0.0,2.9,78,0.00,,,0.00,VWS V14.00,2013-04-30 21:30:00,
2013-04-30 17:31:00,64.4,57.4,30.12,SW,232,0.0,0.0,78,0.00,,,0.00,VWS V14.00,2013-04-30 21:31:00,
2013-04-30 17:35:00,64.6,57.6,30.12,NE,52,0.0,2.5,78,0.00,,,0.00,VWS V14.00,2013-04-30 21:35:00,
2013-04-30 17:36:00,64.2,57.6,30.12,WNW,300,0.0,0.0,79,0.00,,,0.00,VWS V14.00,2013-04-30 21:36:00,
2013-04-30 17:40:00,64.4,57.4,30.12,WSW,255,0.0,0.0,78,0.00,,,0.00,VWS V14.00,2013-04-30 21:40:00,
2013-04-30 17:41:00,64.2,57.9,30.12,WNW,300,0.0,0.0,80,0.00,,,0.00,VWS V14.00,2013-04-30 21:41:00,
2013-04-30 17:45:00,64.2,57.6,30.12,WNW,300,0.0,0.0,79,0.00,,,0.00,VWS V14.00,2013-04-30 21:45:00,
2013-04-30 17:46:00,64.2,57.9,30.12,SE,142,0.0,0.0,80,0.00,,,0.00,VWS V14.00,2013-04-30 21:46:00,
2013-04-30 17:50:00,64.2,57.9,30.12,West,278,0.0,0.0,80,0.00,,,0.00,VWS V14.00,2013-04-30 21:50:00,
2013-04-30 17:51:00,64.2,57.9,30.12,SE,142,1.1,2.0,80,0.00,,,0.00,VWS V14.00,2013-04-30 21:51:00,
2013-04-30 17:55:00,64.2,57.9,30.12,SE,142,0.0,0.0,80,0.00,,,0.00,VWS V14.00,2013-04-30 21:55:00,
2013-04-30 17:56:00,64.4,57.8,30.12,SE,142,1.3,2.7,79,0.00,,,0.00,VWS V14.00,2013-04-30 21:56:00,
2013-04-30 18:00:00,64.2,57.6,30.12,SE,142,1.3,2.5,79,0.00,,,0.00,VWS V14.00,2013-04-30 22:00:00,
2013-04-30 18:05:00,64.4,57.8,30.12,SE,142,1.6,2.7,79,0.00,,,0.00,VWS V14.00,2013-04-30 22:05:00,
2013-04-30 18:06:00,64.4,57.8,30.12,SE,142,0.0,0.0,79,0.00,,,0.00,VWS V14.00,2013-04-30 22:06:00,
2013-04-30 18:08:00,64.4,57.8,30.12,SE,142,0.0,0.0,79,0.00,,,0.00,VWS V14.00,2013-04-30 22:08:00,
2013-04-30 18:09:00,64.4,57.8,30.12,SE,142,0.0,0.0,79,0.00,,,0.00,VWS V14.00,2013-04-30 22:09:00,
2013-04-30 18:10:00,64.4,57.8,30.12,SE,142,2.7,2.7,79,0.00,,,0.00,VWS V14.00,2013-04-30 22:10:00,
2013-04-30 18:11:00,64.4,57.4,30.12,SSE,165,0.0,2.2,78,0.00,,,0.00,VWS V14.00,2013-04-30 22:11:00,
2013-04-30 18:12:00,64.4,57.8,30.12,SE,142,0.0,0.0,79,0.00,,,0.00,VWS V14.00,2013-04-30 22:12:00,
2013-04-30 18:15:00,64.4,57.4,30.12,ESE,120,2.2,2.2,78,0.00,,,0.00,VWS V14.00,2013-04-30 22:15:00,
2013-04-30 18:16:00,64.4,57.0,30.15,SE,142,0.0,2.9,77,0.00,,,0.00,VWS V14.00,2013-04-30 22:16:00,
2013-04-30 18:20:00,64.4,57.4,30.15,SE,142,0.0,2.2,78,0.00,,,0.00,VWS V14.00,2013-04-30 22:20:00,
2013-04-30 18:21:00,64.4,57.4,30.15,SE,142,0.0,0.0,78,0.00,,,0.00,VWS V14.00,2013-04-30 22:21:00,
2013-04-30 18:25:00,64.4,57.0,30.15,SE,142,0.0,2.9,77,0.00,,,0.00,VWS V14.00,2013-04-30 22:25:00,
2013-04-30 18:26:00,64.2,57.2,30.15,ESE,120,0.0,2.0,78,0.00,,,0.00,VWS V14.00,2013-04-30 22:26:00,
2013-04-30 18:30:00,64.4,57.4,30.15,SE,142,1.1,1.1,78,0.00,,,0.00,VWS V14.00,2013-04-30 22:30:00,
2013-04-30 18:31:00,64.2,57.2,30.15,ESE,120,0.0,1.3,78,0.00,,,0.00,VWS V14.00,2013-04-30 22:31:00,
2013-04-30 18:35:00,64.2,57.2,30.15,ESE,120,0.0,2.0,78,0.00,,,0.00,VWS V14.00,2013-04-30 22:35:00,
2013-04-30 18:36:00,64.0,57.0,30.15,East,98,2.9,2.9,78,0.00,,,0.00,VWS V14.00,2013-04-30 22:36:00,
2013-04-30 18:40:00,64.2,57.2,30.15,ESE,120,2.5,2.7,78,0.00,,,0.00,VWS V14.00,2013-04-30 22:40:00,
2013-04-30 18:41:00,64.0,56.7,30.15,SSE,165,0.0,2.7,77,0.00,,,0.00,VWS V14.00,2013-04-30 22:41:00,
2013-04-30 18:45:00,64.0,57.0,30.15,ESE,120,2.2,2.9,78,0.00,,,0.00,VWS V14.00,2013-04-30 22:45:00,
2013-04-30 18:46:00,63.9,56.9,30.15,WNW,300,0.0,0.0,78,0.00,,,0.00,VWS V14.00,2013-04-30 22:46:00,
2013-04-30 18:50:00,64.0,56.7,30.15,SSE,165,0.0,2.7,77,0.00,,,0.00,VWS V14.00,2013-04-30 22:50:00,
2013-04-30 18:51:00,63.7,56.7,30.15,SE,142,1.3,2.0,78,0.00,,,0.00,VWS V14.00,2013-04-30 22:51:00,
2013-04-30 18:55:00,63.9,56.9,30.15,WNW,300,0.0,0.0,78,0.00,,,0.00,VWS V14.00,2013-04-30 22:55:00,
2013-04-30 18:56:00,63.5,56.5,30.15,SSE,165,0.0,0.9,78,0.00,,,0.00,VWS V14.00,2013-04-30 22:56:00,
2013-04-30 19:00:00,63.7,56.7,30.15,SE,142,0.9,2.0,78,0.00,,,0.00,VWS V14.00,2013-04-30 23:00:00,
2013-04-30 19:02:00,63.5,56.5,30.15,SE,142,0.9,0.9,78,0.00,,,0.00,VWS V14.00,2013-04-30 23:02:00,
2013-04-30 19:05:00,63.5,56.5,30.15,SSE,165,0.0,0.9,78,0.00,,,0.00,VWS V14.00,2013-04-30 23:05:00,
2013-04-30 19:07:00,63.3,56.3,30.15,SE,142,0.0,3.1,78,0.00,,,0.00,VWS V14.00,2013-04-30 23:07:00,
2013-04-30 19:10:00,63.5,56.5,30.15,SE,142,2.0,2.0,78,0.00,,,0.00,VWS V14.00,2013-04-30 23:10:00,
2013-04-30 19:12:00,63.1,56.9,30.15,WNW,300,0.0,0.0,80,0.00,,,0.00,VWS V14.00,2013-04-30 23:12:00,
2013-04-30 19:15:00,63.3,56.3,30.15,SE,142,0.0,3.1,78,0.00,,,0.00,VWS V14.00,2013-04-30 23:15:00,
2013-04-30 19:17:00,63.0,56.7,30.15,WNW,300,0.0,0.0,80,0.00,,,0.00,VWS V14.00,2013-04-30 23:17:00,
2013-04-30 19:20:00,63.1,56.9,30.15,WNW,300,0.0,0.0,80,0.00,,,0.00,VWS V14.00,2013-04-30 23:20:00,
2013-04-30 19:22:00,62.8,56.9,30.15,WNW,300,0.0,0.0,81,0.00,,,0.00,VWS V14.00,2013-04-30 23:22:00,
2013-04-30 19:25:00,63.0,56.7,30.15,WNW,300,0.0,0.0,80,0.00,,,0.00,VWS V14.00,2013-04-30 23:25:00,
2013-04-30 19:27:00,62.6,56.3,30.15,East,98,0.0,0.0,80,0.00,,,0.00,VWS V14.00,2013-04-30 23:27:00,
2013-04-30 19:30:00,62.8,56.9,30.15,WNW,300,0.0,0.0,81,0.00,,,0.00,VWS V14.00,2013-04-30 23:30:00,
2013-04-30 19:32:00,62.4,56.2,30.15,East,98,0.0,0.0,80,0.00,,,0.00,VWS V14.00,2013-04-30 23:32:00,
2013-04-30 19:35:00,62.6,56.3,30.15,East,98,0.0,2.5,80,0.00,,,0.00,VWS V14.00,2013-04-30 23:35:00,
2013-04-30 19:37:00,62.2,56.3,30.15,East,98,0.0,0.0,81,0.00,,,0.00,VWS V14.00,2013-04-30 23:37:00,
2013-04-30 19:40:00,62.4,56.2,30.15,East,98,0.0,0.0,80,0.00,,,0.00,VWS V14.00,2013-04-30 23:40:00,
2013-04-30 19:42:00,61.9,56.7,30.18,East,98,0.0,0.0,83,0.00,,,0.00,VWS V14.00,2013-04-30 23:42:00,
2013-04-30 19:45:00,62.2,56.3,30.15,East,98,0.0,0.0,81,0.00,,,0.00,VWS V14.00,2013-04-30 23:45:00,
2013-04-30 19:47:00,61.7,56.5,30.18,East,98,0.0,0.0,83,0.00,,,0.00,VWS V14.00,2013-04-30 23:47:00,
2013-04-30 19:50:00,61.9,56.7,30.18,East,98,0.0,0.0,83,0.00,,,0.00,VWS V14.00,2013-04-30 23:50:00,
2013-04-30 19:52:00,61.3,56.1,30.18,East,98,0.0,0.0,83,0.00,,,0.00,VWS V14.00,2013-04-30 23:52:00,
2013-04-30 19:55:00,61.7,56.5,30.18,East,98,0.0,0.0,83,0.00,,,0.00,VWS V14.00,2013-04-30 23:55:00,
2013-04-30 19:57:00,61.0,55.8,30.18,East,98,0.0,0.0,83,0.00,,,0.00,VWS V14.00,2013-04-30 23:57:00,
2013-04-30 20:00:00,61.3,56.1,30.18,East,98,0.0,0.0,83,0.00,,,0.00,VWS V14.00,2013-05-01 00:00:00,
2013-04-30 20:03:00,60.8,55.6,30.18,East,98,0.0,0.0,83,0.00,,,0.00,VWS V14.00,2013-05-01 00:03:00,
2013-04-30 20:05:00,61.0,55.8,30.18,East,98,0.0,0.0,83,0.00,,,0.00,VWS V14.00,2013-05-01 00:05:00,
2013-04-30 20:08:00,60.4,55.6,30.18,East,98,0.0,0.0,84,0.00,,,0.00,VWS V14.00,2013-05-01 00:08:00,
2013-04-30 20:10:00,60.8,55.6,30.18,East,98,0.0,0.0,83,0.00,,,0.00,VWS V14.00,2013-05-01 00:10:00,
2013-04-30 20:13:00,59.9,55.4,30.18,East,98,0.0,0.0,85,0.00,,,0.00,VWS V14.00,2013-05-01 00:13:00,
2013-04-30 20:15:00,60.4,55.6,30.18,East,98,0.0,0.0,84,0.00,,,0.00,VWS V14.00,2013-05-01 00:15:00,
2013-04-30 20:18:00,59.5,55.3,30.18,East,98,0.0,0.0,86,0.00,,,0.00,VWS V14.00,2013-05-01 00:18:00,
2013-04-30 20:20:00,60.1,55.2,30.18,East,98,0.0,0.0,84,0.00,,,0.00,VWS V14.00,2013-05-01 00:20:00,
2013-04-30 20:23:00,59.4,55.5,30.18,East,98,0.0,0.0,87,0.00,,,0.00,VWS V14.00,2013-05-01 00:23:00,
2013-04-30 20:25:00,59.7,55.5,30.18,East,98,0.0,0.0,86,0.00,,,0.00,VWS V14.00,2013-05-01 00:25:00,
2013-04-30 20:28:00,59.0,55.1,30.21,East,98,0.0,0.0,87,0.00,,,0.00,VWS V14.00,2013-05-01 00:28:00,
2013-04-30 20:30:00,59.4,55.5,30.18,East,98,0.0,0.0,87,0.00,,,0.00,VWS V14.00,2013-05-01 00:30:00,
2013-04-30 20:33:00,58.6,55.1,30.21,East,98,0.0,0.0,88,0.00,,,0.00,VWS V14.00,2013-05-01 00:33:00,
2013-04-30 20:35:00,59.2,55.3,30.21,East,98,0.0,0.0,87,0.00,,,0.00,VWS V14.00,2013-05-01 00:35:00,
2013-04-30 20:38:00,58.5,55.2,30.21,East,98,0.0,0.0,89,0.00,,,0.00,VWS V14.00,2013-05-01 00:38:00,
2013-04-30 20:40:00,58.8,55.3,30.21,East,98,0.0,0.0,88,0.00,,,0.00,VWS V14.00,2013-05-01 00:40:00,
2013-04-30 20:43:00,58.3,55.1,30.18,East,98,0.0,0.0,89,0.00,,,0.00,VWS V14.00,2013-05-01 00:43:00,
2013-04-30 20:45:00,58.5,54.9,30.21,East,98,0.0,0.0,88,0.00,,,0.00,VWS V14.00,2013-05-01 00:45:00,
2013-04-30 20:48:00,58.1,55.2,30.18,East,98,0.0,0.0,90,0.00,,,0.00,VWS V14.00,2013-05-01 00:48:00,
2013-04-30 20:50:00,58.3,55.1,30.18,East,98,0.0,0.0,89,0.00,,,0.00,VWS V14.00,2013-05-01 00:50:00,
2013-04-30 20:53:00,57.9,55.0,30.18,East,98,0.0,0.0,90,0.00,,,0.00,VWS V14.00,2013-05-01 00:53:00,
2013-04-30 20:55:00,58.1,54.9,30.18,East,98,0.0,0.0,89,0.00,,,0.00,VWS V14.00,2013-05-01 00:55:00,
2013-04-30 20:58:00,57.7,54.8,30.18,East,98,0.0,0.0,90,0.00,,,0.00,VWS V14.00,2013-05-01 00:58:00,
2013-04-30 21:00:00,57.9,55.0,30.18,East,98,0.0,0.0,90,0.00,,,0.00,VWS V14.00,2013-05-01 01:00:00,
2013-04-30 21:04:00,57.6,55.0,30.18,East,98,0.0,0.0,91,0.00,,,0.00,VWS V14.00,2013-05-01 01:04:00,
2013-04-30 21:05:00,57.9,55.0,30.18,East,98,0.0,0.0,90,0.00,,,0.00,VWS V14.00,2013-05-01 01:05:00,
2013-04-30 21:09:00,57.4,54.8,30.18,East,98,0.0,0.0,91,0.00,,,0.00,VWS V14.00,2013-05-01 01:09:00,
2013-04-30 21:10:00,57.7,54.8,30.18,East,98,0.0,0.0,90,0.00,,,0.00,VWS V14.00,2013-05-01 01:10:00,
2013-04-30 21:14:00,57.2,54.6,30.18,East,98,0.0,0.0,91,0.00,,,0.00,VWS V14.00,2013-05-01 01:14:00,
2013-04-30 21:15:00,57.4,54.8,30.18,East,98,0.0,0.0,91,0.00,,,0.00,VWS V14.00,2013-05-01 01:15:00,
2013-04-30 21:19:00,57.0,54.7,30.18,East,98,0.0,0.0,92,0.00,,,0.00,VWS V14.00,2013-05-01 01:19:00,
2013-04-30 21:20:00,57.4,54.8,30.18,East,98,0.0,0.0,91,0.00,,,0.00,VWS V14.00,2013-05-01 01:20:00,
2013-04-30 21:24:00,56.8,54.5,30.18,East,98,0.0,0.0,92,0.00,,,0.00,VWS V14.00,2013-05-01 01:24:00,
2013-04-30 21:25:00,57.2,54.6,30.18,East,98,0.0,0.0,91,0.00,,,0.00,VWS V14.00,2013-05-01 01:25:00,
2013-04-30 21:29:00,56.7,54.4,30.18,East,98,0.0,0.0,92,0.00,,,0.00,VWS V14.00,2013-05-01 01:29:00,
2013-04-30 21:30:00,56.8,54.5,30.18,East,98,0.0,0.0,92,0.00,,,0.00,VWS V14.00,2013-05-01 01:30:00,
2013-04-30 21:34:00,56.5,54.5,30.18,East,98,0.0,0.0,93,0.00,,,0.00,VWS V14.00,2013-05-01 01:34:00,
2013-04-30 21:35:00,56.7,54.7,30.18,East,98,0.0,0.0,93,0.00,,,0.00,VWS V14.00,2013-05-01 01:35:00,
2013-04-30 21:39:00,56.1,54.1,30.18,East,98,0.0,0.0,93,0.00,,,0.00,VWS V14.00,2013-05-01 01:39:00,
2013-04-30 21:40:00,56.5,54.5,30.18,East,98,0.0,0.0,93,0.00,,,0.00,VWS V14.00,2013-05-01 01:40:00,
2013-04-30 21:44:00,56.1,54.1,30.18,East,98,0.0,0.0,93,0.00,,,0.00,VWS V14.00,2013-05-01 01:44:00,
2013-04-30 21:45:00,56.3,54.3,30.18,East,98,0.0,0.0,93,0.00,,,0.00,VWS V14.00,2013-05-01 01:45:00,
2013-04-30 21:49:00,55.9,54.0,30.18,East,98,0.0,0.0,93,0.00,,,0.00,VWS V14.00,2013-05-01 01:49:00,
2013-04-30 21:50:00,56.1,54.1,30.18,East,98,0.0,0.0,93,0.00,,,0.00,VWS V14.00,2013-05-01 01:50:00,
2013-04-30 21:54:00,55.8,53.8,30.18,East,98,0.0,0.0,93,0.00,,,0.00,VWS V14.00,2013-05-01 01:54:00,
2013-04-30 21:55:00,55.9,54.0,30.18,East,98,0.0,0.0,93,0.00,,,0.00,VWS V14.00,2013-05-01 01:55:00,
2013-04-30 21:59:00,55.6,53.6,30.21,East,98,0.0,0.0,93,0.00,,,0.00,VWS V14.00,2013-05-01 01:59:00,
2013-04-30 22:00:00,55.8,53.8,30.18,East,98,0.0,0.0,93,0.00,,,0.00,VWS V14.00,2013-05-01 02:00:00,
2013-04-30 22:04:00,55.4,53.4,30.21,East,98,0.0,0.0,93,0.00,,,0.00,VWS V14.00,2013-05-01 02:04:00,
2013-04-30 22:05:00,55.6,53.6,30.21,East,98,0.0,0.0,93,0.00,,,0.00,VWS V14.00,2013-05-01 02:05:00,
2013-04-30 22:09:00,55.2,53.5,30.21,East,98,0.0,0.0,94,0.00,,,0.00,VWS V14.00,2013-05-01 02:09:00,
2013-04-30 22:10:00,55.4,53.4,30.21,East,98,0.0,0.0,93,0.00,,,0.00,VWS V14.00,2013-05-01 02:10:00,
2013-04-30 22:15:00,55.0,53.3,30.18,East,98,0.0,0.0,94,0.00,,,0.00,VWS V14.00,2013-05-01 02:15:00,
2013-04-30 22:20:00,55.0,53.6,30.18,East,98,0.0,0.0,95,0.00,,,0.00,VWS V14.00,2013-05-01 02:20:00,
2013-04-30 22:25:00,54.9,53.2,30.18,East,98,0.0,0.0,94,0.00,,,0.00,VWS V14.00,2013-05-01 02:25:00,
2013-04-30 22:30:00,54.5,52.8,30.18,East,98,0.0,0.0,94,0.00,,,0.00,VWS V14.00,2013-05-01 02:30:00,
2013-04-30 22:35:00,54.3,52.6,30.18,East,98,0.0,0.0,94,0.00,,,0.00,VWS V14.00,2013-05-01 02:35:00,
2013-04-30 22:40:00,54.1,52.7,30.18,East,98,0.0,0.0,95,0.00,,,0.00,VWS V14.00,2013-05-01 02:40:00,
2013-04-30 22:45:00,54.0,52.6,30.18,East,98,0.0,0.0,95,0.00,,,0.00,VWS V14.00,2013-05-01 02:45:00,
2013-04-30 22:50:00,53.8,52.4,30.18,East,98,0.0,0.0,95,0.00,,,0.00,VWS V14.00,2013-05-01 02:50:00,
2013-04-30 22:55:00,53.8,52.4,30.18,East,98,0.0,0.0,95,0.00,,,0.00,VWS V14.00,2013-05-01 02:55:00,
2013-04-30 23:00:00,53.6,52.2,30.18,East,98,0.0,0.0,95,0.00,,,0.00,VWS V14.00,2013-05-01 03:00:00,
2013-04-30 23:05:00,53.4,52.3,30.18,East,98,0.0,0.0,96,0.00,,,0.00,VWS V14.00,2013-05-01 03:05:00,
2013-04-30 23:10:00,53.4,52.3,30.18,East,98,0.0,0.0,96,0.00,,,0.00,VWS V14.00,2013-05-01 03:10:00,
2013-04-30 23:15:00,53.2,52.1,30.18,East,98,0.0,0.0,96,0.00,,,0.00,VWS V14.00,2013-05-01 03:15:00,
2013-04-30 23:20:00,53.2,52.1,30.18,East,98,0.0,0.0,96,0.00,,,0.00,VWS V14.00,2013-05-01 03:20:00,
2013-04-30 23:21:00,53.1,52.0,30.18,East,98,0.0,0.0,96,0.00,,,0.00,VWS V14.00,2013-05-01 03:21:00,
2013-04-30 23:25:00,53.2,52.1,30.18,East,98,0.0,0.0,96,0.00,,,0.00,VWS V14.00,2013-05-01 03:25:00,
2013-04-30 23:26:00,53.1,52.2,30.18,East,98,0.0,0.0,97,0.00,,,0.00,VWS V14.00,2013-05-01 03:26:00,
2013-04-30 23:30:00,53.1,52.2,30.18,East,98,0.0,0.0,97,0.00,,,0.00,VWS V14.00,2013-05-01 03:30:00,
2013-04-30 23:31:00,52.9,52.0,30.18,East,98,0.0,0.0,97,0.00,,,0.00,VWS V14.00,2013-05-01 03:31:00,
2013-04-30 23:35:00,53.1,52.2,30.18,East,98,0.0,0.0,97,0.00,,,0.00,VWS V14.00,2013-05-01 03:35:00,
2013-04-30 23:36:00,52.9,52.0,30.18,East,98,0.0,0.0,97,0.00,,,0.00,VWS V14.00,2013-05-01 03:36:00,
2013-04-30 23:40:00,52.9,52.0,30.18,East,98,0.0,0.0,97,0.00,,,0.00,VWS V14.00,2013-05-01 03:40:00,
2013-04-30 23:41:00,52.9,52.0,30.18,East,98,0.0,0.0,97,0.00,,,0.00,VWS V14.00,2013-05-01 03:41:00,
2013-04-30 23:46:00,52.7,51.9,30.18,East,98,0.0,0.0,97,0.00,,,0.00,VWS V14.00,2013-05-01 03:46:00,
2013-04-30 23:51:00,52.7,51.9,30.18,East,98,0.0,0.0,97,0.00,,,0.00,VWS V14.00,2013-05-01 03:51:00,
2013-04-30 23:56:00,52.5,51.7,30.18,East,98,0.0,0.0,97,0.00,,,0.00,VWS V14.00,2013-05-01 03:56:00,